createdAt,value
2019-02-15T00:01:53.023Z,7.68
2019-02-15T00:04:58.800Z,7.93
2019-02-15T00:08:06.098Z,8.06
2019-02-15T00:11:11.885Z,7.95
2019-02-15T00:14:17.695Z,7.90
2019-02-15T00:17:41.160Z,7.80
2019-02-15T00:20:53.244Z,7.28
2019-02-15T00:23:59.004Z,7.54
2019-02-15T00:27:04.864Z,7.28
2019-02-15T00:30:12.260Z,7.28
2019-02-15T00:33:18.017Z,7.25
2019-02-15T00:36:23.798Z,7.08
2019-02-15T00:39:29.651Z,7.46
2019-02-15T00:42:35.421Z,7.36
2019-02-15T00:45:52.925Z,7.29
2019-02-15T00:48:59.412Z,7.44
2019-02-15T00:52:16.856Z,7.58
2019-02-15T00:55:35.213Z,7.76
2019-02-15T00:59:09.003Z,7.83
2019-02-15T01:02:27.153Z,7.60
2019-02-15T01:05:49.396Z,7.39
2019-02-15T01:09:14.033Z,7.60
2019-02-15T01:12:41.799Z,7.68
2019-02-15T01:15:47.546Z,7.91
2019-02-15T01:18:53.322Z,8.14
2019-02-15T01:21:59.081Z,8.10
2019-02-15T01:25:05.221Z,8.08
2019-02-15T01:28:21.309Z,8.10
2019-02-15T01:31:51.959Z,7.85
2019-02-15T01:35:11.831Z,7.63
2019-02-15T01:38:33.612Z,7.42
2019-02-15T01:42:13.419Z,7.63
2019-02-15T01:45:32.946Z,7.60
2019-02-15T01:48:38.717Z,7.62
2019-02-15T01:51:44.544Z,7.79
2019-02-15T01:54:50.332Z,7.76
2019-02-15T01:57:56.079Z,7.97
2019-02-15T02:01:01.959Z,7.80
2019-02-15T02:04:07.734Z,7.97
2019-02-15T02:07:13.497Z,8.03
2019-02-15T02:10:19.285Z,8.08
2019-02-15T02:13:25.372Z,7.97
2019-02-15T02:16:31.126Z,8.13
2019-02-15T02:19:36.898Z,8.16
2019-02-15T02:22:42.677Z,8.14
2019-02-15T02:25:48.419Z,8.07
2019-02-15T02:28:54.256Z,8.11
2019-02-15T02:32:01.138Z,8.02
2019-02-15T02:35:08.500Z,8.24
2019-02-15T02:38:14.247Z,8.44
2019-02-15T02:41:20.149Z,8.40
2019-02-15T02:44:25.999Z,8.41
2019-02-15T02:47:31.780Z,8.47
2019-02-15T02:50:37.532Z,8.42
2019-02-15T02:53:43.310Z,8.44
2019-02-15T02:56:49.222Z,7.79
2019-02-15T02:59:55.009Z,7.74
2019-02-15T03:03:00.837Z,8.07
2019-02-15T03:06:06.633Z,7.72
2019-02-15T03:09:12.397Z,7.51
2019-02-15T03:12:18.165Z,7.49
2019-02-15T03:15:23.933Z,6.73
2019-02-15T03:18:29.689Z,7.26
2019-02-15T03:21:35.440Z,6.97
2019-02-15T03:24:41.210Z,7.40
2019-02-15T03:27:46.971Z,7.59
2019-02-15T03:30:52.891Z,7.35
2019-02-15T03:33:58.757Z,7.59
2019-02-15T03:37:23.451Z,7.57
2019-02-15T03:40:50.645Z,7.89
2019-02-15T03:43:56.770Z,8.22
2019-02-15T03:47:02.568Z,8.15
2019-02-15T03:50:08.980Z,8.28
2019-02-15T03:53:14.748Z,8.33
2019-02-15T03:56:20.497Z,8.33
2019-02-15T03:59:26.576Z,8.24
2019-02-15T04:02:32.529Z,8.34
2019-02-15T04:05:38.360Z,8.20
2019-02-15T04:08:44.181Z,8.22
2019-02-15T04:11:49.964Z,8.03
2019-02-15T04:14:55.745Z,8.30
2019-02-15T04:18:01.521Z,8.16
2019-02-15T04:21:07.308Z,8.12
2019-02-15T04:24:14.195Z,8.19
2019-02-15T04:27:19.999Z,7.94
2019-02-15T04:30:25.783Z,8.18
2019-02-15T04:33:31.544Z,8.11
2019-02-15T04:36:37.356Z,7.98
2019-02-15T04:39:43.111Z,7.79
2019-02-15T04:42:48.879Z,7.60
2019-02-15T04:45:54.638Z,7.42
2019-02-15T04:49:00.395Z,7.60
2019-02-15T04:52:06.159Z,7.42
2019-02-15T04:55:12.006Z,7.08
2019-02-15T04:58:17.815Z,7.29
2019-02-15T05:01:23.578Z,7.28
2019-02-15T05:04:29.383Z,7.34
2019-02-15T05:07:35.209Z,7.57
2019-02-15T05:10:41.001Z,7.69
2019-02-15T05:13:46.812Z,7.24
2019-02-15T05:16:52.572Z,7.39
2019-02-15T05:19:58.378Z,7.42
2019-02-15T05:23:04.141Z,7.62
2019-02-15T05:26:09.949Z,7.37
2019-02-15T05:29:15.739Z,7.72
2019-02-15T05:32:21.514Z,7.52
2019-02-15T05:35:27.269Z,7.61
2019-02-15T05:38:33.111Z,7.69
2019-02-15T05:41:38.871Z,7.63
2019-02-15T05:44:44.640Z,7.46
2019-02-15T05:47:50.394Z,7.55
2019-02-15T05:50:56.175Z,7.40
2019-02-15T05:54:01.952Z,7.78
2019-02-15T05:57:09.610Z,7.36
2019-02-15T06:00:15.210Z,7.62
2019-02-15T06:03:20.964Z,7.82
2019-02-15T06:06:26.736Z,7.82
2019-02-15T06:09:32.551Z,7.78
2019-02-15T06:12:38.300Z,7.82
2019-02-15T06:15:44.083Z,8.01
2019-02-15T06:18:49.848Z,7.52
2019-02-15T06:21:55.708Z,7.90
2019-02-15T06:25:01.485Z,7.67
2019-02-15T06:28:07.273Z,7.61
2019-02-15T06:31:13.035Z,7.61
2019-02-15T06:34:18.802Z,7.42
2019-02-15T06:37:24.635Z,7.35
2019-02-15T06:40:30.398Z,7.36
2019-02-15T06:43:36.203Z,7.50
2019-02-15T06:46:42.268Z,7.54
2019-02-15T06:49:49.046Z,7.70
2019-02-15T06:52:54.927Z,7.48
2019-02-15T06:56:00.660Z,7.47
2019-02-15T06:59:27.899Z,7.83
2019-02-15T07:02:58.336Z,8.04
2019-02-15T07:06:04.132Z,7.86
2019-02-15T07:09:09.893Z,8.24
2019-02-15T07:12:15.678Z,8.03
2019-02-15T07:15:21.552Z,8.31
2019-02-15T07:18:27.332Z,8.26
2019-02-15T07:21:33.113Z,8.32
2019-02-15T07:24:39.878Z,8.42
2019-02-15T07:27:45.637Z,8.33
2019-02-15T07:30:52.388Z,8.51
2019-02-15T07:33:58.157Z,8.54
2019-02-15T07:37:03.919Z,8.61
2019-02-15T07:40:10.325Z,8.69
2019-02-15T07:43:16.253Z,8.74
2019-02-15T07:46:22.017Z,8.61
2019-02-15T07:49:27.772Z,8.66
2019-02-15T07:52:34.513Z,8.23
2019-02-15T07:55:40.304Z,8.36
2019-02-15T07:58:46.187Z,7.86
2019-02-15T08:01:51.894Z,8.17
2019-02-15T08:04:57.628Z,8.40
2019-02-15T08:08:03.399Z,8.67
2019-02-15T08:11:09.140Z,8.85
2019-02-15T08:14:17.105Z,8.90
2019-02-15T08:17:22.411Z,8.76
2019-02-15T08:20:28.215Z,8.95
2019-02-15T08:23:34.043Z,8.81
2019-02-15T08:26:39.824Z,8.79
2019-02-15T08:29:45.682Z,8.58
2019-02-15T08:32:51.514Z,8.63
2019-02-15T08:35:57.284Z,8.50
2019-02-15T08:39:03.232Z,8.51
2019-02-15T08:42:10.548Z,8.63
2019-02-15T08:45:16.429Z,8.69
2019-02-15T08:48:22.210Z,8.57
2019-02-15T08:51:28.000Z,8.51
2019-02-15T08:54:34.898Z,8.70
2019-02-15T08:57:40.629Z,8.37
2019-02-15T09:00:46.405Z,8.07
2019-02-15T09:03:52.146Z,8.19
2019-02-15T09:06:57.908Z,8.40
2019-02-15T09:10:04.130Z,8.54
2019-02-15T09:13:09.986Z,8.57
2019-02-15T09:16:15.791Z,8.58
2019-02-15T09:19:21.559Z,8.66
2019-02-15T09:22:27.311Z,8.64
2019-02-15T09:25:33.092Z,8.66
2019-02-15T09:28:46.322Z,8.56
2019-02-15T09:31:52.137Z,8.75
2019-02-15T09:34:57.903Z,8.79
2019-02-15T09:38:03.697Z,8.59
2019-02-15T09:41:09.474Z,9.07
2019-02-15T09:44:15.235Z,9.05
2019-02-15T09:47:21.029Z,9.20
2019-02-15T09:50:26.801Z,9.03
2019-02-15T09:53:32.573Z,8.92
2019-02-15T09:56:38.431Z,8.87
2019-02-15T09:59:44.182Z,8.79
2019-02-15T10:02:49.941Z,8.91
2019-02-15T10:05:55.713Z,8.40
2019-02-15T10:09:01.564Z,8.37
2019-02-15T10:12:08.894Z,7.75
2019-02-15T10:15:14.757Z,8.38
2019-02-15T10:18:21.667Z,8.06
2019-02-15T10:21:27.431Z,8.25
2019-02-15T10:24:33.210Z,8.52
2019-02-15T10:27:38.980Z,8.50
2019-02-15T10:30:44.833Z,8.63
2019-02-15T10:33:51.592Z,9.05
2019-02-15T10:36:58.436Z,9.10
2019-02-15T10:40:05.563Z,8.05
2019-02-15T10:43:11.317Z,8.69
2019-02-15T10:46:17.208Z,9.32
2019-02-15T10:49:24.122Z,9.51
2019-02-15T10:52:29.864Z,9.06
2019-02-15T10:55:35.650Z,9.01
2019-02-15T10:58:41.527Z,9.19
2019-02-15T11:01:47.321Z,9.29
2019-02-15T11:04:54.222Z,9.04
2019-02-15T11:08:00.015Z,9.21
2019-02-15T11:11:05.963Z,8.96
2019-02-15T11:14:11.719Z,9.19
2019-02-15T11:17:17.626Z,9.33
2019-02-15T11:20:23.690Z,9.62
2019-02-15T11:23:29.478Z,9.68
2019-02-15T11:26:35.258Z,9.71
2019-02-15T11:29:41.029Z,9.67
2019-02-15T11:32:46.972Z,9.73
2019-02-15T11:35:52.833Z,9.53
2019-02-15T11:38:58.589Z,9.56
2019-02-15T11:42:04.368Z,9.41
2019-02-15T11:45:11.339Z,9.66
2019-02-15T11:48:17.117Z,9.79
2019-02-15T11:51:22.953Z,9.51
2019-02-15T11:54:28.719Z,9.71
2019-02-15T11:57:34.514Z,9.21
2019-02-15T12:00:40.240Z,9.39
2019-02-15T12:03:46.020Z,9.24
2019-02-15T12:06:52.762Z,9.65
2019-02-15T12:09:58.519Z,9.29
2019-02-15T12:13:04.508Z,9.42
2019-02-15T12:16:10.286Z,9.69
2019-02-15T12:19:16.103Z,9.19
2019-02-15T12:22:22.015Z,9.30
2019-02-15T12:25:27.749Z,9.27
2019-02-15T12:28:33.518Z,9.23
2019-02-15T12:31:39.261Z,9.41
2019-02-15T12:34:45.130Z,9.26
2019-02-15T12:37:50.966Z,9.27
2019-02-15T12:40:56.701Z,9.03
2019-02-15T12:44:02.614Z,9.01
2019-02-15T12:47:14.877Z,9.39
2019-02-15T12:50:16.581Z,9.36
2019-02-15T12:53:22.412Z,9.58
2019-02-15T12:56:28.284Z,9.52
2019-02-15T12:59:34.047Z,9.89
2019-02-15T13:02:39.843Z,9.52
2019-02-15T13:05:45.664Z,9.51
2019-02-15T13:08:51.434Z,9.62
2019-02-15T13:11:57.238Z,9.11
2019-02-15T13:15:03.110Z,9.43
2019-02-15T13:18:09.118Z,9.26
2019-02-15T13:21:14.867Z,9.02
2019-02-15T13:24:20.721Z,9.21
2019-02-15T13:27:26.493Z,8.96
2019-02-15T13:30:32.256Z,8.92
2019-02-15T13:33:38.054Z,8.81
2019-02-15T13:36:43.873Z,8.63
2019-02-15T13:39:49.660Z,8.71
2019-02-15T13:42:55.437Z,8.66
2019-02-15T13:46:01.202Z,8.97
2019-02-15T13:49:06.960Z,8.91
2019-02-15T13:52:12.712Z,8.82
2019-02-15T13:55:18.500Z,9.00
2019-02-15T13:58:24.269Z,9.27
2019-02-15T14:01:30.087Z,9.18
2019-02-15T14:04:35.862Z,9.42
2019-02-15T14:07:41.814Z,9.11
2019-02-15T14:10:47.593Z,8.93
2019-02-15T14:13:53.367Z,9.10
2019-02-15T14:16:59.119Z,8.97
2019-02-15T14:20:05.757Z,8.89
2019-02-15T14:23:13.901Z,8.69
2019-02-15T14:26:19.079Z,8.49
2019-02-15T14:29:24.848Z,8.47
2019-02-15T14:32:30.600Z,8.20
2019-02-15T14:35:37.469Z,8.61
2019-02-15T14:38:43.316Z,8.70
2019-02-15T14:41:49.126Z,8.53
2019-02-15T14:44:54.895Z,8.69
2019-02-15T14:48:00.718Z,8.83
2019-02-15T14:51:06.616Z,8.89
2019-02-15T14:54:12.399Z,8.62
2019-02-15T14:57:18.259Z,8.56
2019-02-15T15:00:24.135Z,8.31
2019-02-15T15:03:30.154Z,8.31
2019-02-15T15:06:35.965Z,8.26
2019-02-15T15:09:44.694Z,8.26
2019-02-15T15:12:50.510Z,8.14
2019-02-15T15:15:56.320Z,7.93
2019-02-15T15:19:02.191Z,7.88
2019-02-15T15:22:07.985Z,7.81
2019-02-15T15:25:14.001Z,7.81
2019-02-15T15:28:19.927Z,8.03
2019-02-15T15:31:25.754Z,7.73
2019-02-15T15:34:32.110Z,7.81
2019-02-15T15:37:38.057Z,7.96
2019-02-15T15:40:43.870Z,8.00
2019-02-15T15:43:49.642Z,8.08
2019-02-15T15:46:55.461Z,7.94
2019-02-15T15:50:01.241Z,8.29
2019-02-15T15:53:07.962Z,8.26
2019-02-15T15:56:13.897Z,7.98
2019-02-15T15:59:19.737Z,8.28
2019-02-15T16:02:25.513Z,7.87
2019-02-15T16:05:31.320Z,8.07
2019-02-15T16:08:37.093Z,8.06
2019-02-15T16:11:43.025Z,8.07
2019-02-15T16:14:48.856Z,8.10
2019-02-15T16:17:54.648Z,7.88
2019-02-15T16:21:00.432Z,7.93
2019-02-15T16:24:12.281Z,7.92
2019-02-15T16:27:13.744Z,7.93
2019-02-15T16:30:19.769Z,7.85
2019-02-15T16:33:25.540Z,7.79
2019-02-15T16:36:31.417Z,7.77
2019-02-15T16:39:37.172Z,7.71
2019-02-15T16:42:43.192Z,7.45
2019-02-15T16:45:49.095Z,7.72
2019-02-15T16:48:54.875Z,7.53
2019-02-15T16:52:00.679Z,7.42
2019-02-15T16:55:12.876Z,7.62
2019-02-15T16:58:14.163Z,7.53
2019-02-15T17:01:19.981Z,7.35
2019-02-15T17:04:25.774Z,7.36
2019-02-15T17:07:31.659Z,7.26
2019-02-15T17:10:37.440Z,7.65
2019-02-15T17:13:43.223Z,7.65
2019-02-15T17:16:48.985Z,7.49
2019-02-15T17:19:54.746Z,7.66
2019-02-15T17:23:00.510Z,7.75
2019-02-15T17:26:06.308Z,7.94
2019-02-15T17:29:12.079Z,7.75
2019-02-15T17:32:17.901Z,7.68
2019-02-15T17:35:23.714Z,8.09
2019-02-15T17:38:29.614Z,8.04
2019-02-15T17:41:35.359Z,7.92
2019-02-15T17:44:42.269Z,8.00
2019-02-15T17:47:48.062Z,7.57
2019-02-15T17:50:53.898Z,7.35
2019-02-15T17:53:59.673Z,7.68
2019-02-15T17:57:06.187Z,7.87
2019-02-15T18:00:13.009Z,7.74
2019-02-15T18:03:18.939Z,7.96
2019-02-15T18:06:24.718Z,8.10
2019-02-15T18:09:30.534Z,8.16
2019-02-15T18:12:36.304Z,8.32
2019-02-15T18:15:42.099Z,7.95
2019-02-15T18:18:47.867Z,8.10
2019-02-15T18:21:53.735Z,8.10
2019-02-15T18:24:59.529Z,7.54
2019-02-15T18:28:05.594Z,7.73
2019-02-15T18:31:11.368Z,7.40
2019-02-15T18:34:17.194Z,7.77
2019-02-15T18:37:23.077Z,8.04
2019-02-15T18:40:28.898Z,8.00
2019-02-15T18:43:34.636Z,8.18
2019-02-15T18:46:40.423Z,8.22
2019-02-15T18:49:46.309Z,8.14
2019-02-15T18:52:52.413Z,8.22
2019-02-15T18:55:58.317Z,8.33
2019-02-15T18:59:04.112Z,8.46
2019-02-15T19:02:09.987Z,8.32
2019-02-15T19:05:15.961Z,7.76
2019-02-15T19:08:21.816Z,8.19
2019-02-15T19:11:27.728Z,8.39
2019-02-15T19:14:33.590Z,8.48
2019-02-15T19:17:39.552Z,8.52
2019-02-15T19:20:45.438Z,8.54
2019-02-15T19:23:52.371Z,8.59
2019-02-15T19:26:58.268Z,8.69
2019-02-15T19:30:05.667Z,8.73
2019-02-15T19:33:11.665Z,8.06
2019-02-15T19:36:18.637Z,8.30
2019-02-15T19:39:24.403Z,8.31
2019-02-15T19:42:30.216Z,8.41
2019-02-15T19:45:36.002Z,7.87
2019-02-15T19:48:41.781Z,8.11
2019-02-15T19:51:48.181Z,8.04
2019-02-15T19:54:54.020Z,7.93
2019-02-15T19:57:59.873Z,8.01
2019-02-15T20:01:05.773Z,7.65
2019-02-15T20:04:11.601Z,7.49
2019-02-15T20:07:17.497Z,7.53
2019-02-15T20:10:23.824Z,7.43
2019-02-15T20:13:29.698Z,7.34
2019-02-15T20:16:35.523Z,7.43
2019-02-15T20:19:48.224Z,7.10
2019-02-15T20:22:49.051Z,7.21
2019-02-15T20:25:54.894Z,7.24
2019-02-15T20:29:00.671Z,7.19
2019-02-15T20:32:06.460Z,7.34
2019-02-15T20:35:13.568Z,7.76
2019-02-15T20:38:19.703Z,7.12
2019-02-15T20:41:25.587Z,7.51
2019-02-15T20:44:31.460Z,7.37
2019-02-15T20:47:37.227Z,7.39
2019-02-15T20:50:43.019Z,7.45
2019-02-15T20:53:48.917Z,7.46
2019-02-15T20:56:54.667Z,7.42
2019-02-15T21:00:00.471Z,7.20
2019-02-15T21:03:06.588Z,7.14
2019-02-15T21:06:12.350Z,7.50
2019-02-15T21:09:18.221Z,7.63
2019-02-15T21:12:24.019Z,7.53
2019-02-15T21:15:29.804Z,7.70
2019-02-15T21:18:35.600Z,7.38
2019-02-15T21:21:41.465Z,7.48
2019-02-15T21:24:47.232Z,7.63
2019-02-15T21:27:53.021Z,7.78
2019-02-15T21:30:58.884Z,7.45
2019-02-15T21:34:04.743Z,7.96
2019-02-15T21:37:10.542Z,7.94
2019-02-15T21:40:16.841Z,7.54
2019-02-15T21:43:22.606Z,7.85
2019-02-15T21:46:28.406Z,7.68
2019-02-15T21:49:34.211Z,7.91
2019-02-15T21:52:44.385Z,7.80
2019-02-15T21:55:47.623Z,8.13
2019-02-15T21:58:53.433Z,8.20
2019-02-15T22:01:59.216Z,7.97
2019-02-15T22:05:05.244Z,8.16
2019-02-15T22:08:11.015Z,8.22
2019-02-15T22:11:16.864Z,7.91
2019-02-15T22:14:22.655Z,7.61
2019-02-15T22:17:28.460Z,8.09
2019-02-15T22:20:34.217Z,8.29
2019-02-15T22:23:39.963Z,7.92
2019-02-15T22:26:45.746Z,8.09
2019-02-15T22:29:51.462Z,7.59
2019-02-15T22:32:57.234Z,7.81
2019-02-15T22:36:02.996Z,8.08
2019-02-15T22:39:08.924Z,7.95
2019-02-15T22:42:15.037Z,7.80
2019-02-15T22:45:20.919Z,7.89
2019-02-15T22:48:26.690Z,8.09
2019-02-15T22:51:32.475Z,8.30
2019-02-15T22:54:38.268Z,8.40
2019-02-15T22:57:44.046Z,8.45
2019-02-15T23:00:57.356Z,8.49
2019-02-15T23:04:03.380Z,8.38
2019-02-15T23:07:09.166Z,8.27
2019-02-15T23:10:15.057Z,8.11
2019-02-15T23:13:20.963Z,8.17
2019-02-15T23:16:26.738Z,8.11
2019-02-15T23:19:32.517Z,7.38
2019-02-15T23:22:38.327Z,8.06
2019-02-15T23:25:44.091Z,8.17
2019-02-15T23:28:49.874Z,8.31
2019-02-15T23:31:55.641Z,8.32
2019-02-15T23:35:01.399Z,8.02
2019-02-15T23:38:07.178Z,8.28
2019-02-15T23:41:13.975Z,8.24
2019-02-15T23:44:19.816Z,8.46
2019-02-15T23:47:25.593Z,8.57
2019-02-15T23:50:31.390Z,8.44
2019-02-15T23:53:37.171Z,8.44
2019-02-15T23:56:42.952Z,8.38
2019-02-15T23:59:48.821Z,8.30
